Terminal Aerodrome Forecast
Issued by NWS Sioux Falls, SD

Home | Current Version | Previous Version | Graphics & Text | Print | Product List | Glossary On
Versions: 1 2 3 4 5 6 7 8 9 10 11 12 13 14 15 16 17 18 19 20
000
FTUS43 KFSD 212300
TAFHON
TAF
KHON 212340Z 2200/2224 16012KT P6SM FEW120
     FM220200 23005KT P6SM SCT250
     FM220800 34011KT P6SM SKC
     FM221100 35014G19KT P6SM FEW025
     FM221900 01013G18KT P6SM SCT045
     FM222300 03008KT P6SM FEW045 SCT150=

USA.gov is the U.S. government's official web portal to all federal, state and local government web resources and services.